Time;durP1;ratioP1;P1;durP2;ratioP2;P2;SDS_P1;SDS_P2;PMS_P1;PMS_P2;Temp;Humidity;BMP_temperature;BMP_pressure;BME280_temperature;BME280_humidity;BME280_pressure;Samples;Min_cycle;Max_cycle;Signal;HPM_P1;HPM_P2
2023/06/27 00:00:15;;;;;;;2.97;1.20;;;;;;;;;;503008;28;1646;-77
2023/06/27 00:00:31;;;;;;;2.75;1.05;;;;;;;;;;501798;28;1791;-77
2023/06/27 00:00:47;;;;;;;2.72;1.10;;;;;;;;;;502464;28;1004;-77
2023/06/27 00:01:23;;;;;;;2.70;1.23;;;;;;;;;;502215;28;1286;-78
2023/06/27 00:01:39;;;;;;;3.33;1.17;;;;;;;;;;504035;28;1335;-77
2023/06/27 00:01:55;;;;;;;3.78;1.20;;;;;;;;;;505086;28;1350;-77
2023/06/27 00:02:12;;;;;;;3.23;1.13;;;;;;;;;;505107;28;1377;-77
2023/06/27 00:02:27;;;;;;;3.22;1.10;;;;;;;;;;506802;28;1143;-76
2023/06/27 00:02:46;;;;;;;4.85;1.10;;;;;;;;;;507789;28;1241;-77
2023/06/27 00:03:02;;;;;;;2.78;1.00;;;;;;;;;;505990;28;1428;-76
2023/06/27 00:03:18;;;;;;;2.47;0.93;;;;;;;;;;501621;28;1361;-76
2023/06/27 00:03:34;;;;;;;2.50;1.00;;;;;;;;;;502141;28;1188;-77
2023/06/27 00:03:51;;;;;;;2.90;1.00;;;;;;;;;;505547;28;1330;-77
2023/06/27 00:04:13;;;;;;;2.80;1.10;;;;;;;;;;503450;28;1087;-77
2023/06/27 00:04:41;;;;;;;2.42;1.00;;;;;;;;;;504481;28;955;-77
2023/06/27 00:05:00;;;;;;;2.75;1.00;;;;;;;;;;505287;28;1416;-77
2023/06/27 00:05:16;;;;;;;2.95;1.00;;;;;;;;;;503194;28;1324;-77
2023/06/27 00:05:34;;;;;;;3.33;1.00;;;;;;;;;;503198;28;1194;-77
2023/06/27 00:05:51;;;;;;;2.40;0.90;;;;;;;;;;505993;28;1574;-77
2023/06/27 00:06:10;;;;;;;2.13;1.00;;;;;;;;;;503345;28;1380;-77
2023/06/27 00:06:26;;;;;;;2.40;1.15;;;;;;;;;;502348;28;1738;-76
2023/06/27 00:06:42;;;;;;;2.72;1.10;;;;;;;;;;503784;28;1259;-77
2023/06/27 00:06:57;;;;;;;2.45;1.00;;;;;;;;;;500108;29;1218;-77
2023/06/27 00:07:13;;;;;;;2.10;1.00;;;;;;;;;;497733;29;981;-78
2023/06/27 00:07:29;;;;;;;2.10;1.10;;;;;;;;;;501627;28;1364;-76
2023/06/27 00:07:44;;;;;;;2.10;1.10;;;;;;;;;;503150;28;1461;-76
2023/06/27 00:08:00;;;;;;;1.83;1.00;;;;;;;;;;501484;28;1347;-77
2023/06/27 00:08:16;;;;;;;2.22;0.90;;;;;;;;;;500286;28;1222;-77
2023/06/27 00:08:32;;;;;;;2.92;1.00;;;;;;;;;;503513;28;1552;-76
2023/06/27 00:08:49;;;;;;;3.38;1.10;;;;;;;;;;502466;28;1443;-77
2023/06/27 00:09:09;;;;;;;3.17;1.00;;;;;;;;;;499206;28;1071;-77
2023/06/27 00:09:24;;;;;;;2.10;1.02;;;;;;;;;;504434;28;1466;-77
2023/06/27 00:09:40;;;;;;;1.73;0.90;;;;;;;;;;503490;28;1326;-76
2023/06/27 00:09:56;;;;;;;1.98;1.02;;;;;;;;;;506327;28;1913;-76
2023/06/27 00:10:12;;;;;;;3.00;1.10;;;;;;;;;;506320;28;1126;-77
2023/06/27 00:10:28;;;;;;;3.25;1.10;;;;;;;;;;506322;28;1322;-77
2023/06/27 00:10:44;;;;;;;2.67;1.00;;;;;;;;;;506616;28;1368;-77
2023/06/27 00:11:00;;;;;;;2.87;1.00;;;;;;;;;;508058;28;1256;-77
2023/06/27 00:11:16;;;;;;;2.60;1.10;;;;;;;;;;506712;28;974;-76
2023/06/27 00:11:32;;;;;;;2.45;1.13;;;;;;;;;;501901;28;1228;-77
2023/06/27 00:11:48;;;;;;;2.58;1.00;;;;;;;;;;504791;28;1329;-76
2023/06/27 00:12:05;;;;;;;3.08;1.00;;;;;;;;;;504675;28;1361;-77
2023/06/27 00:12:22;;;;;;;3.85;1.20;;;;;;;;;;503189;28;1279;-76
2023/06/27 00:12:37;;;;;;;3.97;1.20;;;;;;;;;;505690;28;950;-76
2023/06/27 00:12:53;;;;;;;4.55;1.20;;;;;;;;;;506951;28;1213;-76
2023/06/27 00:13:16;;;;;;;3.53;1.20;;;;;;;;;;504979;28;1130;-77
2023/06/27 00:13:31;;;;;;;1.75;0.95;;;;;;;;;;507346;28;1197;-76
2023/06/27 00:13:48;;;;;;;2.45;1.00;;;;;;;;;;506273;28;1264;-76
2023/06/27 00:14:09;;;;;;;2.00;1.00;;;;;;;;;;504595;28;1448;-77
2023/06/27 00:14:25;;;;;;;1.98;1.00;;;;;;;;;;502073;28;1332;-76
2023/06/27 00:14:44;;;;;;;2.20;1.00;;;;;;;;;;505361;28;1102;-75
2023/06/27 00:15:00;;;;;;;2.35;1.10;;;;;;;;;;504924;28;1106;-77
2023/06/27 00:15:18;;;;;;;2.67;1.05;;;;;;;;;;503073;28;1450;-76
2023/06/27 00:15:34;;;;;;;2.13;1.02;;;;;;;;;;507003;28;1314;-76
2023/06/27 00:15:52;;;;;;;1.83;1.08;;;;;;;;;;508172;28;1429;-77
2023/06/27 00:16:14;;;;;;;2.10;1.00;;;;;;;;;;505198;28;1519;-78
2023/06/27 00:16:32;;;;;;;1.67;0.90;;;;;;;;;;507645;28;1102;-77
2023/06/27 00:16:48;;;;;;;2.53;1.00;;;;;;;;;;505857;28;1057;-77
2023/06/27 00:17:12;;;;;;;3.33;1.20;;;;;;;;;;503055;28;1314;-77
2023/06/27 00:17:27;;;;;;;2.55;1.10;;;;;;;;;;502920;28;1315;-78
2023/06/27 00:17:43;;;;;;;2.85;1.10;;;;;;;;;;503549;28;1484;-76
2023/06/27 00:17:59;;;;;;;2.80;1.02;;;;;;;;;;505397;28;1430;-76
2023/06/27 00:18:38;;;;;;;2.53;1.10;;;;;;;;;;502583;28;932;-76
2023/06/27 00:18:54;;;;;;;3.30;1.20;;;;;;;;;;501049;29;1166;-76
2023/06/27 00:19:17;;;;;;;3.33;1.13;;;;;;;;;;502008;28;1823;-77
2023/06/27 00:19:36;;;;;;;3.30;1.38;;;;;;;;;;504614;28;1355;-77
2023/06/27 00:19:57;;;;;;;2.10;1.10;;;;;;;;;;507312;28;1256;-76
2023/06/27 00:20:14;;;;;;;2.45;1.13;;;;;;;;;;504229;28;1484;-75
2023/06/27 00:20:34;;;;;;;4.30;1.27;;;;;;;;;;505469;28;1061;-76
2023/06/27 00:20:50;;;;;;;4.35;1.17;;;;;;;;;;502800;28;1155;-76
2023/06/27 00:21:19;;;;;;;2.17;0.98;;;;;;;;;;506754;28;1398;-77
2023/06/27 00:21:38;;;;;;;2.80;1.10;;;;;;;;;;505577;28;1258;-77
2023/06/27 00:21:55;;;;;;;1.95;0.93;;;;;;;;;;506573;28;1397;-76
2023/06/27 00:22:12;;;;;;;1.83;0.90;;;;;;;;;;506625;28;1376;-74
2023/06/27 00:22:29;;;;;;;2.35;1.08;;;;;;;;;;507442;28;1291;-77
2023/06/27 00:22:46;;;;;;;2.92;1.10;;;;;;;;;;505602;28;1251;-76
2023/06/27 00:23:24;;;;;;;2.33;1.00;;;;;;;;;;506468;28;1138;-76
2023/06/27 00:23:40;;;;;;;1.67;1.00;;;;;;;;;;508573;28;1126;-75
2023/06/27 00:23:57;;;;;;;2.20;1.00;;;;;;;;;;505935;28;1178;-76
2023/06/27 00:24:13;;;;;;;3.22;1.15;;;;;;;;;;507675;28;1300;-77
2023/06/27 00:24:29;;;;;;;4.32;1.20;;;;;;;;;;509474;28;1497;-76
2023/06/27 00:24:46;;;;;;;4.35;1.10;;;;;;;;;;508318;28;1323;-77
2023/06/27 00:25:21;;;;;;;2.45;1.10;;;;;;;;;;507799;28;1416;-77
2023/06/27 00:25:37;;;;;;;2.10;1.05;;;;;;;;;;505525;28;1639;-77
2023/06/27 00:25:56;;;;;;;2.47;1.00;;;;;;;;;;505819;28;1347;-77
2023/06/27 00:26:18;;;;;;;2.63;1.05;;;;;;;;;;502776;28;1292;-77
2023/06/27 00:26:34;;;;;;;2.92;1.30;;;;;;;;;;506198;28;1373;-78
2023/06/27 00:26:51;;;;;;;2.70;1.10;;;;;;;;;;506263;28;1665;-77
2023/06/27 00:27:15;;;;;;;2.42;1.10;;;;;;;;;;504110;28;1229;-77
2023/06/27 00:27:31;;;;;;;2.35;1.10;;;;;;;;;;503297;28;1360;-77
2023/06/27 00:27:53;;;;;;;3.08;1.20;;;;;;;;;;504746;28;1198;-76
2023/06/27 00:28:10;;;;;;;3.33;1.13;;;;;;;;;;503804;28;1177;-77
2023/06/27 00:28:33;;;;;;;2.63;1.20;;;;;;;;;;502350;28;1247;-77
2023/06/27 00:28:57;;;;;;;2.72;1.13;;;;;;;;;;505906;28;1223;-77
2023/06/27 00:29:14;;;;;;;2.97;1.02;;;;;;;;;;504212;28;1180;-77
2023/06/27 00:29:30;;;;;;;3.25;1.00;;;;;;;;;;504906;28;1438;-76
2023/06/27 00:30:00;;;;;;;2.97;1.00;;;;;;;;;;504763;28;1034;-76
2023/06/27 00:30:21;;;;;;;2.70;1.10;;;;;;;;;;503423;28;1410;-78
2023/06/27 00:30:39;;;;;;;2.97;1.23;;;;;;;;;;503238;28;1325;-76
2023/06/27 00:30:59;;;;;;;2.20;1.10;;;;;;;;;;502197;28;1467;-76
2023/06/27 00:31:15;;;;;;;2.28;1.10;;;;;;;;;;502723;28;1098;-77
2023/06/27 00:31:34;;;;;;;1.80;0.90;;;;;;;;;;504298;28;1398;-77
2023/06/27 00:31:50;;;;;;;1.65;0.90;;;;;;;;;;505257;28;1425;-76
2023/06/27 00:32:12;;;;;;;1.98;1.08;;;;;;;;;;505752;28;1494;-77
2023/06/27 00:32:28;;;;;;;2.47;1.05;;;;;;;;;;504626;28;1428;-77
2023/06/27 00:32:44;;;;;;;2.80;1.05;;;;;;;;;;504990;28;1507;-77
2023/06/27 00:33:09;;;;;;;3.00;1.00;;;;;;;;;;504262;28;1335;-76
2023/06/27 00:33:34;;;;;;;2.50;1.10;;;;;;;;;;502006;28;1588;-76
2023/06/27 00:33:50;;;;;;;3.05;1.02;;;;;;;;;;502200;28;1379;-77
2023/06/27 00:34:15;;;;;;;2.90;1.10;;;;;;;;;;501740;28;1388;-77
2023/06/27 00:34:31;;;;;;;2.53;1.20;;;;;;;;;;504830;28;1020;-76
2023/06/27 00:34:51;;;;;;;3.20;1.20;;;;;;;;;;502552;28;1351;-77
2023/06/27 00:35:10;;;;;;;4.55;1.40;;;;;;;;;;501339;28;1237;-77
2023/06/27 00:35:46;;;;;;;2.92;1.15;;;;;;;;;;503632;28;1193;-77
2023/06/27 00:36:06;;;;;;;2.17;1.08;;;;;;;;;;503895;28;1448;-76
2023/06/27 00:36:21;;;;;;;3.65;1.10;;;;;;;;;;503494;28;1380;-77
2023/06/27 00:36:37;;;;;;;3.35;1.10;;;;;;;;;;503197;28;1427;-77
2023/06/27 00:36:53;;;;;;;3.47;1.00;;;;;;;;;;503300;28;1278;-76
2023/06/27 00:37:12;;;;;;;3.35;1.00;;;;;;;;;;499260;28;1285;-77
2023/06/27 00:37:27;;;;;;;3.90;1.27;;;;;;;;;;501424;28;1339;-76
2023/06/27 00:37:43;;;;;;;3.77;1.30;;;;;;;;;;503361;28;1300;-75
2023/06/27 00:38:01;;;;;;;2.70;1.10;;;;;;;;;;504960;28;1357;-76
2023/06/27 00:38:17;;;;;;;2.22;1.00;;;;;;;;;;502069;28;1118;-77
2023/06/27 00:38:33;;;;;;;2.65;1.02;;;;;;;;;;504342;28;1383;-78
2023/06/27 00:38:49;;;;;;;3.15;1.13;;;;;;;;;;504598;28;1125;-77
2023/06/27 00:39:08;;;;;;;4.28;1.20;;;;;;;;;;502766;28;1194;-77
2023/06/27 00:39:24;;;;;;;4.07;1.20;;;;;;;;;;504666;28;1059;-76
2023/06/27 00:39:42;;;;;;;3.70;1.10;;;;;;;;;;499939;28;1550;-76
2023/06/27 00:39:58;;;;;;;3.22;1.10;;;;;;;;;;507502;28;1168;-76
2023/06/27 00:40:14;;;;;;;3.90;1.10;;;;;;;;;;502952;28;1517;-77
2023/06/27 00:40:30;;;;;;;3.80;1.10;;;;;;;;;;503272;28;1138;-78
2023/06/27 00:40:52;;;;;;;3.05;1.20;;;;;;;;;;503766;28;1307;-77
2023/06/27 00:41:14;;;;;;;3.47;1.13;;;;;;;;;;503728;28;1375;-77
2023/06/27 00:41:29;;;;;;;3.17;1.10;;;;;;;;;;505420;28;1162;-77
2023/06/27 00:41:48;;;;;;;3.55;1.20;;;;;;;;;;503762;28;1228;-77
2023/06/27 00:42:11;;;;;;;3.08;1.20;;;;;;;;;;503173;28;1317;-77
2023/06/27 00:42:27;;;;;;;2.40;1.20;;;;;;;;;;503713;28;1371;-77
2023/06/27 00:42:43;;;;;;;3.33;1.20;;;;;;;;;;504551;28;972;-77
2023/06/27 00:42:59;;;;;;;3.10;1.17;;;;;;;;;;504438;28;1421;-76
2023/06/27 00:43:15;;;;;;;2.47;1.15;;;;;;;;;;500063;28;1256;-77
2023/06/27 00:43:30;;;;;;;2.30;1.00;;;;;;;;;;501853;28;1512;-75
2023/06/27 00:43:47;;;;;;;2.38;1.00;;;;;;;;;;502024;28;1482;-76
2023/06/27 00:44:18;;;;;;;3.55;1.10;;;;;;;;;;502583;28;1396;-75
2023/06/27 00:44:34;;;;;;;1.92;1.02;;;;;;;;;;501870;28;1432;-75
2023/06/27 00:44:49;;;;;;;2.10;1.10;;;;;;;;;;504203;28;1382;-76
2023/06/27 00:45:07;;;;;;;1.80;1.00;;;;;;;;;;504041;28;1324;-76
2023/06/27 00:45:23;;;;;;;1.77;1.00;;;;;;;;;;501583;28;1518;-75
2023/06/27 00:45:39;;;;;;;3.50;1.15;;;;;;;;;;506294;28;994;-76
2023/06/27 00:45:56;;;;;;;3.88;1.20;;;;;;;;;;504265;28;1416;-76
2023/06/27 00:46:24;;;;;;;3.20;1.27;;;;;;;;;;501701;28;1208;-76
2023/06/27 00:46:41;;;;;;;3.53;1.30;;;;;;;;;;502344;28;1103;-76
2023/06/27 00:46:58;;;;;;;2.97;1.10;;;;;;;;;;503108;28;1226;-76
2023/06/27 00:47:16;;;;;;;2.38;1.00;;;;;;;;;;500308;28;1492;-76
2023/06/27 00:47:32;;;;;;;2.45;1.10;;;;;;;;;;502590;28;1732;-76
2023/06/27 00:47:49;;;;;;;3.70;1.30;;;;;;;;;;503066;28;1344;-76
2023/06/27 00:48:14;;;;;;;3.33;1.27;;;;;;;;;;504271;28;1305;-77
2023/06/27 00:48:32;;;;;;;3.25;1.20;;;;;;;;;;504786;28;1507;-76
2023/06/27 00:48:49;;;;;;;3.67;1.13;;;;;;;;;;501799;28;1439;-77
2023/06/27 00:49:11;;;;;;;2.47;1.20;;;;;;;;;;501593;28;1353;-77
2023/06/27 00:49:28;;;;;;;2.25;1.13;;;;;;;;;;500350;28;1273;-77
2023/06/27 00:49:45;;;;;;;2.60;1.20;;;;;;;;;;502179;28;1050;-76
2023/06/27 00:50:01;;;;;;;2.95;1.13;;;;;;;;;;503269;28;2011;-76
2023/06/27 00:50:17;;;;;;;3.53;1.10;;;;;;;;;;504740;28;1405;-76
2023/06/27 00:50:35;;;;;;;3.85;1.20;;;;;;;;;;502492;28;1242;-78
2023/06/27 00:50:55;;;;;;;3.20;1.20;;;;;;;;;;503189;28;1446;-77
2023/06/27 00:51:12;;;;;;;3.25;1.10;;;;;;;;;;501913;28;1252;-77
2023/06/27 00:51:33;;;;;;;2.53;1.10;;;;;;;;;;504617;28;1612;-76
2023/06/27 00:51:49;;;;;;;2.75;1.20;;;;;;;;;;503661;28;1372;-75
2023/06/27 00:52:15;;;;;;;3.08;1.27;;;;;;;;;;502462;28;1602;-76
2023/06/27 00:52:37;;;;;;;2.85;1.20;;;;;;;;;;504519;28;1304;-77
2023/06/27 00:52:56;;;;;;;3.00;1.10;;;;;;;;;;504228;28;1486;-76
2023/06/27 00:53:14;;;;;;;3.92;1.30;;;;;;;;;;502064;28;1317;-78
2023/06/27 00:53:30;;;;;;;4.95;1.30;;;;;;;;;;504197;28;1500;-78
2023/06/27 00:53:46;;;;;;;4.15;1.20;;;;;;;;;;505301;28;1046;-76
2023/06/27 00:54:16;;;;;;;2.50;1.13;;;;;;;;;;505153;28;1141;-76
2023/06/27 00:54:33;;;;;;;3.78;1.40;;;;;;;;;;504906;28;1541;-77
2023/06/27 00:54:50;;;;;;;3.70;1.30;;;;;;;;;;505873;28;1267;-76
2023/06/27 00:55:08;;;;;;;2.88;1.17;;;;;;;;;;506267;28;1308;-77
2023/06/27 00:55:30;;;;;;;2.78;1.17;;;;;;;;;;503856;28;1221;-76
2023/06/27 00:55:46;;;;;;;3.08;1.25;;;;;;;;;;505091;28;1280;-75
2023/06/27 00:56:14;;;;;;;3.40;1.23;;;;;;;;;;504730;28;1385;-76
2023/06/27 00:56:31;;;;;;;3.28;1.20;;;;;;;;;;507251;28;1270;-77
2023/06/27 00:56:52;;;;;;;3.30;1.05;;;;;;;;;;505981;28;1453;-77
2023/06/27 00:57:12;;;;;;;1.88;0.85;;;;;;;;;;505441;28;1347;-76
2023/06/27 00:57:33;;;;;;;1.88;0.98;;;;;;;;;;504258;28;1213;-76
2023/06/27 00:57:49;;;;;;;3.53;1.30;;;;;;;;;;501000;28;1055;-77
2023/06/27 00:58:10;;;;;;;3.67;1.33;;;;;;;;;;499948;28;1400;-77
2023/06/27 00:58:26;;;;;;;3.80;1.15;;;;;;;;;;501966;28;1109;-77
2023/06/27 00:58:42;;;;;;;3.13;1.10;;;;;;;;;;501422;28;1455;-76
2023/06/27 00:59:00;;;;;;;2.40;1.10;;;;;;;;;;502385;28;960;-76
2023/06/27 00:59:16;;;;;;;1.88;1.00;;;;;;;;;;497361;28;1226;-76
2023/06/27 00:59:34;;;;;;;3.08;1.27;;;;;;;;;;501998;28;1444;-77
2023/06/27 01:00:19;;;;;;;5.20;1.30;;;;;;;;;;504270;28;1259;-76
2023/06/27 01:00:36;;;;;;;2.92;1.20;;;;;;;;;;498993;28;1521;-77
2023/06/27 01:00:52;;;;;;;2.75;1.13;;;;;;;;;;504113;28;1096;-77
2023/06/27 01:01:11;;;;;;;2.72;1.20;;;;;;;;;;503187;28;1546;-77
2023/06/27 01:01:30;;;;;;;2.55;1.30;;;;;;;;;;506057;28;1249;-77
2023/06/27 01:01:49;;;;;;;3.53;1.30;;;;;;;;;;506247;28;1015;-77
2023/06/27 01:02:08;;;;;;;4.00;1.20;;;;;;;;;;505313;28;1517;-78
2023/06/27 01:02:30;;;;;;;3.13;1.10;;;;;;;;;;502951;28;1369;-76
2023/06/27 01:02:46;;;;;;;3.10;1.20;;;;;;;;;;506464;28;1343;-76
2023/06/27 01:03:05;;;;;;;2.70;1.25;;;;;;;;;;503399;28;1447;-76
2023/06/27 01:03:21;;;;;;;3.47;1.20;;;;;;;;;;501777;28;1174;-76
2023/06/27 01:03:37;;;;;;;3.40;1.20;;;;;;;;;;501277;28;1250;-76
2023/06/27 01:03:53;;;;;;;2.35;1.17;;;;;;;;;;503621;28;1299;-77
2023/06/27 01:04:09;;;;;;;2.90;1.10;;;;;;;;;;501776;28;1333;-77
2023/06/27 01:04:25;;;;;;;3.00;1.05;;;;;;;;;;503356;28;1186;-77
2023/06/27 01:04:41;;;;;;;3.47;1.20;;;;;;;;;;501868;28;1375;-76
2023/06/27 01:04:57;;;;;;;3.37;1.23;;;;;;;;;;501249;28;1110;-76
2023/06/27 01:05:14;;;;;;;3.72;1.35;;;;;;;;;;499921;28;1438;-75
2023/06/27 01:05:30;;;;;;;3.45;1.20;;;;;;;;;;500474;28;1370;-76
2023/06/27 01:05:46;;;;;;;2.88;1.10;;;;;;;;;;502075;28;1424;-76
2023/06/27 01:06:17;;;;;;;2.65;1.10;;;;;;;;;;501217;28;1174;-77
2023/06/27 01:06:58;;;;;;;1.90;1.20;;;;;;;;;;502570;28;1518;-77
2023/06/27 01:07:22;;;;;;;3.70;1.23;;;;;;;;;;501718;28;1168;-75
2023/06/27 01:07:45;;;;;;;2.70;1.20;;;;;;;;;;505164;28;1233;-76
2023/06/27 01:08:05;;;;;;;4.10;1.30;;;;;;;;;;504469;28;1321;-76
2023/06/27 01:08:34;;;;;;;3.70;1.30;;;;;;;;;;503451;28;1126;-76
2023/06/27 01:08:58;;;;;;;1.98;1.00;;;;;;;;;;506860;28;975;-76
2023/06/27 01:09:37;;;;;;;2.55;1.10;;;;;;;;;;504176;28;971;-77
2023/06/27 01:10:00;;;;;;;3.08;1.20;;;;;;;;;;505765;28;1930;-77
2023/06/27 01:10:37;;;;;;;3.25;1.33;;;;;;;;;;504442;28;1376;-76
2023/06/27 01:11:20;;;;;;;3.20;1.20;;;;;;;;;;508951;28;1153;-76
2023/06/27 01:11:45;;;;;;;3.83;1.40;;;;;;;;;;507096;28;1168;-77
2023/06/27 01:12:10;;;;;;;3.85;1.23;;;;;;;;;;504358;28;1251;-76
2023/06/27 01:12:37;;;;;;;3.90;1.45;;;;;;;;;;506499;28;1097;-76
2023/06/27 01:12:55;;;;;;;2.40;1.10;;;;;;;;;;506772;28;1037;-77
2023/06/27 01:13:23;;;;;;;3.33;1.23;;;;;;;;;;503084;28;1479;-76
2023/06/27 01:13:45;;;;;;;3.75;1.30;;;;;;;;;;507639;28;1322;-78
2023/06/27 01:14:12;;;;;;;2.97;1.17;;;;;;;;;;509395;28;1168;-78
2023/06/27 01:14:30;;;;;;;2.08;1.13;;;;;;;;;;507499;28;1514;-76
2023/06/27 01:14:50;;;;;;;2.67;1.30;;;;;;;;;;503588;28;1155;-77
2023/06/27 01:15:07;;;;;;;2.97;1.40;;;;;;;;;;504543;28;1596;-77
2023/06/27 01:15:23;;;;;;;2.95;1.30;;;;;;;;;;504240;28;1612;-77
2023/06/27 01:15:42;;;;;;;2.60;1.38;;;;;;;;;;502806;28;1348;-77
2023/06/27 01:15:58;;;;;;;3.28;1.33;;;;;;;;;;504999;28;1386;-77
2023/06/27 01:16:16;;;;;;;3.90;1.40;;;;;;;;;;503456;28;1004;-76
2023/06/27 01:16:52;;;;;;;3.63;1.30;;;;;;;;;;502787;28;1668;-77
2023/06/27 01:17:09;;;;;;;2.53;1.15;;;;;;;;;;501411;28;1321;-77
2023/06/27 01:17:27;;;;;;;2.90;1.27;;;;;;;;;;500010;28;1508;-77
2023/06/27 01:18:04;;;;;;;2.40;1.30;;;;;;;;;;504059;28;1458;-77
2023/06/27 01:18:21;;;;;;;3.72;1.40;;;;;;;;;;498994;28;1776;-77
2023/06/27 01:19:00;;;;;;;2.90;1.40;;;;;;;;;;500868;28;1535;-77
2023/06/27 01:19:21;;;;;;;2.45;1.10;;;;;;;;;;500744;28;990;-76
2023/06/27 01:19:37;;;;;;;3.10;1.23;;;;;;;;;;504487;28;1266;-77
2023/06/27 01:19:54;;;;;;;3.70;1.30;;;;;;;;;;503296;28;1387;-76
2023/06/27 01:20:22;;;;;;;2.33;1.20;;;;;;;;;;499231;28;1458;-77
2023/06/27 01:20:53;;;;;;;3.97;1.30;;;;;;;;;;502390;28;1339;-77
2023/06/27 01:21:26;;;;;;;2.55;1.15;;;;;;;;;;499085;28;1205;-76
2023/06/27 01:21:44;;;;;;;4.20;1.30;;;;;;;;;;501260;28;1434;-76
2023/06/27 01:22:09;;;;;;;3.83;1.33;;;;;;;;;;502851;28;1586;-77
2023/06/27 01:22:35;;;;;;;6.28;1.30;;;;;;;;;;501521;28;1532;-76
2023/06/27 01:23:17;;;;;;;4.47;1.33;;;;;;;;;;502698;28;1184;-77
2023/06/27 01:23:54;;;;;;;2.38;1.20;;;;;;;;;;504602;28;1327;-75
2023/06/27 01:24:11;;;;;;;3.13;1.20;;;;;;;;;;501605;28;1335;-76
2023/06/27 01:24:27;;;;;;;2.67;1.13;;;;;;;;;;506433;28;939;-78
2023/06/27 01:24:43;;;;;;;2.60;1.30;;;;;;;;;;505455;28;1324;-76
2023/06/27 01:25:00;;;;;;;2.78;1.30;;;;;;;;;;505327;28;1174;-76
2023/06/27 01:25:16;;;;;;;1.92;1.08;;;;;;;;;;501666;28;1312;-76
2023/06/27 01:25:32;;;;;;;1.70;1.10;;;;;;;;;;505066;28;1308;-76
2023/06/27 01:25:50;;;;;;;2.80;1.27;;;;;;;;;;502977;28;1190;-76
2023/06/27 01:26:07;;;;;;;3.28;1.30;;;;;;;;;;501293;28;1382;-76
2023/06/27 01:26:22;;;;;;;3.13;1.30;;;;;;;;;;504060;28;1324;-76
2023/06/27 01:26:39;;;;;;;3.25;1.33;;;;;;;;;;502669;28;1540;-76
2023/06/27 01:26:55;;;;;;;3.05;1.20;;;;;;;;;;504142;28;1316;-76
2023/06/27 01:27:13;;;;;;;2.75;1.20;;;;;;;;;;499206;28;1350;-76
2023/06/27 01:27:29;;;;;;;3.13;1.30;;;;;;;;;;500470;28;1031;-76
2023/06/27 01:27:44;;;;;;;3.65;1.25;;;;;;;;;;502996;28;1467;-75
2023/06/27 01:28:00;;;;;;;3.87;1.30;;;;;;;;;;502181;28;999;-75
2023/06/27 01:28:17;;;;;;;3.50;1.30;;;;;;;;;;501419;28;1103;-76
2023/06/27 01:28:36;;;;;;;3.90;1.27;;;;;;;;;;502209;28;1538;-76
2023/06/27 01:28:53;;;;;;;4.47;1.27;;;;;;;;;;503414;28;1498;-75
2023/06/27 01:29:13;;;;;;;3.05;1.30;;;;;;;;;;502236;28;1287;-76
2023/06/27 01:29:32;;;;;;;2.75;1.38;;;;;;;;;;501190;28;1420;-75
2023/06/27 01:29:48;;;;;;;3.20;1.38;;;;;;;;;;501427;28;1465;-75
2023/06/27 01:30:11;;;;;;;2.90;1.30;;;;;;;;;;501853;28;1958;-76
2023/06/27 01:30:33;;;;;;;3.00;1.30;;;;;;;;;;502237;28;1391;-77
2023/06/27 01:30:50;;;;;;;4.10;1.40;;;;;;;;;;501233;28;1525;-76
2023/06/27 01:31:07;;;;;;;3.35;1.35;;;;;;;;;;498716;28;1326;-76
2023/06/27 01:31:28;;;;;;;3.03;1.30;;;;;;;;;;499000;28;1220;-77
2023/06/27 01:31:49;;;;;;;3.13;1.30;;;;;;;;;;499797;28;1589;-76
2023/06/27 01:32:14;;;;;;;2.97;1.33;;;;;;;;;;498320;29;1395;-76
2023/06/27 01:32:36;;;;;;;4.35;1.30;;;;;;;;;;498107;28;959;-76
2023/06/27 01:33:07;;;;;;;2.83;1.30;;;;;;;;;;502070;28;959;-77
2023/06/27 01:33:44;;;;;;;4.68;1.55;;;;;;;;;;501087;28;1419;-76
2023/06/27 01:34:23;;;;;;;3.33;1.42;;;;;;;;;;503063;28;1346;-76
2023/06/27 01:35:06;;;;;;;3.67;1.30;;;;;;;;;;495958;29;1297;-75
2023/06/27 01:35:36;;;;;;;2.95;1.30;;;;;;;;;;505830;28;1372;-76
2023/06/27 01:35:54;;;;;;;3.83;1.30;;;;;;;;;;506511;28;1280;-76
2023/06/27 01:36:15;;;;;;;4.68;1.55;;;;;;;;;;503826;28;1269;-76
2023/06/27 01:36:51;;;;;;;3.40;1.40;;;;;;;;;;503556;28;1492;-76
2023/06/27 01:37:21;;;;;;;2.25;1.23;;;;;;;;;;500751;28;1300;-76
2023/06/27 01:37:41;;;;;;;3.42;1.50;;;;;;;;;;500324;28;1283;-76
2023/06/27 01:38:20;;;;;;;;;;;;;;;;;;;;;
2023/06/27 01:38:50;;;;;;;3.78;1.40;;;;;;;;;;506116;28;1111;-76
2023/06/27 01:39:32;;;;;;;2.08;1.23;;;;;;;;;;505139;28;1483;-76
2023/06/27 01:40:10;;;;;;;5.22;1.50;;;;;;;;;;505173;28;1485;-76
2023/06/27 01:40:29;;;;;;;2.42;1.45;;;;;;;;;;506079;28;1212;-76
2023/06/27 01:41:12;;;;;;;1.83;1.20;;;;;;;;;;503723;28;1318;-76
2023/06/27 01:41:32;;;;;;;3.60;1.30;;;;;;;;;;505793;28;1530;-77
2023/06/27 01:41:54;;;;;;;3.40;1.40;;;;;;;;;;505495;28;1508;-76
2023/06/27 01:42:21;;;;;;;2.35;1.20;;;;;;;;;;503165;28;1305;-77
2023/06/27 01:42:49;;;;;;;2.88;1.40;;;;;;;;;;502000;28;1267;-75
2023/06/27 01:43:24;;;;;;;4.35;1.50;;;;;;;;;;503093;28;1352;-76
2023/06/27 01:43:46;;;;;;;3.38;1.40;;;;;;;;;;502124;28;1343;-76
2023/06/27 01:44:14;;;;;;;3.28;1.40;;;;;;;;;;500024;28;1160;-76
2023/06/27 01:44:32;;;;;;;4.18;1.30;;;;;;;;;;503624;28;1169;-76
2023/06/27 01:44:49;;;;;;;5.28;1.33;;;;;;;;;;501541;28;1444;-77
2023/06/27 01:45:08;;;;;;;3.35;1.20;;;;;;;;;;504052;28;993;-77
2023/06/27 01:45:24;;;;;;;3.25;1.40;;;;;;;;;;501937;28;1385;-77
2023/06/27 01:45:41;;;;;;;3.67;1.30;;;;;;;;;;502680;28;1030;-76
2023/06/27 01:45:58;;;;;;;2.97;1.17;;;;;;;;;;503086;28;1356;-76
2023/06/27 01:46:34;;;;;;;2.67;1.30;;;;;;;;;;498825;28;1151;-75
2023/06/27 01:46:51;;;;;;;3.60;1.50;;;;;;;;;;500527;28;1216;-76
2023/06/27 01:47:12;;;;;;;2.70;1.40;;;;;;;;;;500706;28;1545;-77
2023/06/27 01:47:29;;;;;;;2.38;1.30;;;;;;;;;;501250;28;1225;-75
2023/06/27 01:47:45;;;;;;;2.90;1.50;;;;;;;;;;500038;28;1340;-76
2023/06/27 01:48:05;;;;;;;3.38;1.52;;;;;;;;;;504044;28;1104;-77
2023/06/27 01:48:25;;;;;;;2.80;1.42;;;;;;;;;;502774;28;1103;-76
2023/06/27 01:48:43;;;;;;;2.47;1.40;;;;;;;;;;503201;28;979;-76
2023/06/27 01:49:00;;;;;;;3.30;1.50;;;;;;;;;;505396;28;1279;-77
2023/06/27 01:49:18;;;;;;;3.42;1.45;;;;;;;;;;502744;28;1506;-77
2023/06/27 01:49:35;;;;;;;3.45;1.50;;;;;;;;;;502689;28;1093;-78
2023/06/27 01:49:50;;;;;;;3.13;1.40;;;;;;;;;;501894;28;1493;-77
2023/06/27 01:50:08;;;;;;;3.25;1.30;;;;;;;;;;499622;28;1955;-77
2023/06/27 01:50:25;;;;;;;3.38;1.45;;;;;;;;;;501152;28;1488;-77
2023/06/27 01:50:41;;;;;;;3.40;1.50;;;;;;;;;;501292;28;1311;-77
2023/06/27 01:51:00;;;;;;;3.03;1.50;;;;;;;;;;499960;28;1372;-77
2023/06/27 01:51:15;;;;;;;3.53;1.52;;;;;;;;;;503017;28;1359;-77
2023/06/27 01:51:32;;;;;;;2.58;1.50;;;;;;;;;;501525;28;1296;-76
2023/06/27 01:51:54;;;;;;;2.40;1.30;;;;;;;;;;500230;28;1403;-76
2023/06/27 01:52:13;;;;;;;3.65;1.50;;;;;;;;;;498847;28;1300;-77
2023/06/27 01:52:32;;;;;;;3.88;1.50;;;;;;;;;;500448;28;1311;-76
2023/06/27 01:52:48;;;;;;;3.25;1.35;;;;;;;;;;497618;29;1452;-75
2023/06/27 01:53:05;;;;;;;2.73;1.50;;;;;;;;;;497004;29;1169;-77
2023/06/27 01:53:21;;;;;;;3.40;1.40;;;;;;;;;;496734;29;1191;-77
2023/06/27 01:53:37;;;;;;;3.55;1.30;;;;;;;;;;500754;28;1444;-75
2023/06/27 01:53:53;;;;;;;2.85;1.45;;;;;;;;;;498897;28;1203;-76
2023/06/27 01:54:18;;;;;;;3.13;1.45;;;;;;;;;;499687;28;1192;-76
2023/06/27 01:54:34;;;;;;;4.93;1.48;;;;;;;;;;502663;28;1071;-78
2023/06/27 01:54:50;;;;;;;4.38;1.35;;;;;;;;;;501214;28;1145;-76
2023/06/27 01:55:07;;;;;;;3.20;1.40;;;;;;;;;;500135;28;1450;-76
2023/06/27 01:55:45;;;;;;;3.45;1.48;;;;;;;;;;501418;28;1228;-77
2023/06/27 01:56:12;;;;;;;4.13;1.30;;;;;;;;;;500042;28;1194;-77
2023/06/27 01:56:28;;;;;;;4.05;1.48;;;;;;;;;;500055;28;1656;-77
2023/06/27 01:56:44;;;;;;;4.95;1.42;;;;;;;;;;498911;28;1272;-75
2023/06/27 01:57:00;;;;;;;3.63;1.30;;;;;;;;;;500799;28;1557;-76
2023/06/27 01:57:15;;;;;;;3.30;1.40;;;;;;;;;;495680;28;1396;-77
2023/06/27 01:57:31;;;;;;;4.18;1.50;;;;;;;;;;490220;28;1210;-77
2023/06/27 01:57:56;;;;;;;;;;;;;;;;;;;;;
2023/06/27 01:58:13;;;;;;;3.80;1.42;;;;;;;;;;480065;28;1118;-77
2023/06/27 01:58:29;;;;;;;3.85;1.40;;;;;;;;;;492813;28;1289;-76
2023/06/27 01:58:44;;;;;;;3.50;1.40;;;;;;;;;;498837;28;1297;-76
2023/06/27 01:59:00;;;;;;;2.40;1.30;;;;;;;;;;498603;28;1201;-76
2023/06/27 01:59:16;;;;;;;2.47;1.30;;;;;;;;;;489259;28;986;-77
2023/06/27 01:59:31;;;;;;;3.28;1.40;;;;;;;;;;497197;28;1404;-76
2023/06/27 01:59:47;;;;;;;3.10;1.50;;;;;;;;;;499343;28;1347;-75
2023/06/27 02:00:04;;;;;;;2.87;1.40;;;;;;;;;;500910;28;1374;-76
2023/06/27 02:00:20;;;;;;;2.38;1.23;;;;;;;;;;497418;28;1263;-76
2023/06/27 02:00:36;;;;;;;2.92;1.35;;;;;;;;;;499809;28;1386;-76
2023/06/27 02:00:52;;;;;;;3.13;1.30;;;;;;;;;;499572;28;1434;-75
2023/06/27 02:01:08;;;;;;;3.00;1.30;;;;;;;;;;498952;28;1185;-75
2023/06/27 02:01:24;;;;;;;3.03;1.40;;;;;;;;;;500119;28;1361;-75
2023/06/27 02:01:40;;;;;;;2.60;1.40;;;;;;;;;;497196;29;1432;-75
2023/06/27 02:01:56;;;;;;;1.83;1.30;;;;;;;;;;499019;28;1229;-77
2023/06/27 02:02:14;;;;;;;2.40;1.30;;;;;;;;;;499989;28;1262;-77
2023/06/27 02:02:30;;;;;;;3.00;1.25;;;;;;;;;;499197;28;974;-76
2023/06/27 02:02:46;;;;;;;2.63;1.20;;;;;;;;;;499812;28;1332;-77
2023/06/27 02:03:33;;;;;;;2.97;1.30;;;;;;;;;;500185;28;1170;-76
2023/06/27 02:03:58;;;;;;;3.03;1.42;;;;;;;;;;501848;28;1011;-77
2023/06/27 02:04:14;;;;;;;4.05;1.40;;;;;;;;;;500316;28;1498;-75
2023/06/27 02:04:30;;;;;;;3.22;1.30;;;;;;;;;;499454;28;1340;-78